Waco, TX

2:29 PM CST on January 22, 2017 (GMT -0600)
Waco Regional | | Change Station
Active Advisory: Wind Advisory

Elev 515 ft 31.61 °N, 97.23 °W | Updated 38 minutes ago

Mostly Cloudy
Mostly Cloudy
63 °F
Feels Like 63 °F
N
22
Wind Variable Wind from NW
Gusts 33 mph

Today
High -- | Low -- °F
--% Chance of Precip.
Yesterday
High -- | Low -- °F
Precip. -- in
Pressure 29.72 in
Visibility 10.0 miles
Clouds Mostly Cloudy 4300 ft
Dew Point 44 °F
Humidity 50%
Rainfall 0.00 in
Snow Depth Not available.
7:26 AM 5:54 PM
Waning Crescent, 24% visible
METAR KACT 221951Z 32019G29KT 10SM BKN043 17/07 A2973 RMK AO2 PK WND 32031/1924 SLP063 T01720067
Pressure 29.72 in
Visibility 10.0 miles
Clouds Mostly Cloudy 4300 ft
Dew Point 44 °F
Humidity 50%
Rainfall 0.00 in
Snow Depth Not available.
7:26 AM 5:54 PM
Waning Crescent, 24% visible
METAR KACT 221951Z 32019G29KT 10SM BKN043 17/07 A2973 RMK AO2 PK WND 32031/1924 SLP063 T01720067

Get Your Daily Forecast Email!

Thanks for signing up!

Be on the lookout for a verification email in your inbox.

You'll start receiving the daily forecast at 8 AM.

×

10-Day Weather Forecast

Almanac

Astronomy

Jan. 22, 2017 Rise Set
Actual Time
Civil Twilight
Nautical Twilight
Astronomical Twilight
Moon
Length of Visible Light
Length of Day
Tomorrow will be .
, % of the Moon is Illuminated

Today's Extremes

State Highs State Lows

Community

WunderPhotos

Upload Photos

1,962,540 photos uploaded!

WunderBlog® & News

Nearby

Air Quality

  Air Quality AQ Index Pollutant
Not available.

Snow Depth

Station Depth Elevation

Earthquake Activity

City Distance Mag. Time & Date
Minimum magnitude displayed is 2.5.

Coastal Water Temperatures

Place Temperature

Stations

Nearby Weather Stations

Station Location Temp. Windchill Dew Point Humidity Wind Precip. Elev Updated Type
                   

Watches & Warnings

Wind Advisory
Issued: 11:47 AM CST Jan. 22, 2017 – National Weather Service

... Wind Advisory remains in effect until 6 PM CST this evening...

* timing... until 6 PM CST Sunday.

* Winds... northwest winds at sustained speeds of 20 to 30 mph with
gusts in excess of 40 mph.

* Impacts... these winds will blow around loose items such as trash
cans and patio furniture. Winds will also make open waters of
area lakes choppy and dangerous. Strong Crosswinds will pose a
hazard to high-profile vehicles traveling on north-south
oriented highways.

Precautionary/preparedness actions...

A Wind Advisory means that sustained winds of at least 20 to
30 mph are expected. Winds this strong can make driving
difficult... especially for high profile vehicles. Boaters should
use extra caution when venturing onto area lakes. Residents may
wish to take action to secure trash cans... lawn furniture... and
other lightweight outdoor objects that may be blown around in the
strong winds.